X  Fermer Données météorologiques d'aviation de Metar     KBNA Nashville International Airport
Température
95°F Température
61°F Point de rosée
32% Humidité



Vitesse
10 MPH
16 KM/H
4 M/S
9 KTS



10°
Nord
Conditions actuelles

Nuages épars Nuages épars
Pression 1015.92 (hPa) - 30 (inHg)
Visibilité 10 (mile) - 16.1 (km)
Aéroport
Code de l'aéroport KBNA

Emplacement: Nashville International Airport
Distance: 28 (mi)

Metar:
KBNA 151853Z 01009KT 10SM SCT065 35/16 A3000 RMK AO2 SLP150 T03500161

Temps: 06-15-2024 6:53 pm CDT